sensor_id;sensor_type;location;lat;lon;timestamp;pressure;altitude;pressure_sealevel;temperature
16956;BMP180;8594;52.052;8.354;2023-01-08T00:00:16;99544.00;;;12.80
16956;BMP180;8594;52.052;8.354;2023-01-08T00:02:43;99537.00;;;12.80
16956;BMP180;8594;52.052;8.354;2023-01-08T00:05:10;99544.00;;;12.90
16956;BMP180;8594;52.052;8.354;2023-01-08T00:07:37;99548.00;;;12.90
16956;BMP180;8594;52.052;8.354;2023-01-08T00:10:05;99548.00;;;13.00
16956;BMP180;8594;52.052;8.354;2023-01-08T00:12:35;99544.00;;;12.90
16956;BMP180;8594;52.052;8.354;2023-01-08T00:15:02;99545.00;;;12.80
16956;BMP180;8594;52.052;8.354;2023-01-08T00:17:31;99536.00;;;13.00
16956;BMP180;8594;52.052;8.354;2023-01-08T00:19:58;99548.00;;;12.80
16956;BMP180;8594;52.052;8.354;2023-01-08T00:22:24;99535.00;;;13.00
16956;BMP180;8594;52.052;8.354;2023-01-08T00:24:51;99543.00;;;13.00
16956;BMP180;8594;52.052;8.354;2023-01-08T00:27:18;99548.00;;;12.90
16956;BMP180;8594;52.052;8.354;2023-01-08T00:29:45;99541.00;;;12.80
16956;BMP180;8594;52.052;8.354;2023-01-08T00:32:12;99544.00;;;12.60
16956;BMP180;8594;52.052;8.354;2023-01-08T00:34:40;99541.00;;;12.90
16956;BMP180;8594;52.052;8.354;2023-01-08T00:37:07;99525.00;;;12.80
16956;BMP180;8594;52.052;8.354;2023-01-08T00:39:34;99535.00;;;13.00
16956;BMP180;8594;52.052;8.354;2023-01-08T00:42:01;99526.00;;;12.80
16956;BMP180;8594;52.052;8.354;2023-01-08T00:44:28;99532.00;;;13.10
16956;BMP180;8594;52.052;8.354;2023-01-08T00:46:55;99536.00;;;13.00
16956;BMP180;8594;52.052;8.354;2023-01-08T00:49:22;99527.00;;;12.90
16956;BMP180;8594;52.052;8.354;2023-01-08T00:51:50;99536.00;;;12.70
16956;BMP180;8594;52.052;8.354;2023-01-08T00:54:17;99526.00;;;13.20
16956;BMP180;8594;52.052;8.354;2023-01-08T00:56:44;99518.00;;;12.80
16956;BMP180;8594;52.052;8.354;2023-01-08T00:59:10;99519.00;;;13.10
16956;BMP180;8594;52.052;8.354;2023-01-08T01:01:37;99509.00;;;13.00
16956;BMP180;8594;52.052;8.354;2023-01-08T01:04:04;99500.00;;;13.00
16956;BMP180;8594;52.052;8.354;2023-01-08T01:06:31;99511.00;;;13.10
16956;BMP180;8594;52.052;8.354;2023-01-08T01:08:59;99510.00;;;13.10
16956;BMP180;8594;52.052;8.354;2023-01-08T01:11:27;99503.00;;;13.00
16956;BMP180;8594;52.052;8.354;2023-01-08T01:13:55;99501.00;;;13.20
16956;BMP180;8594;52.052;8.354;2023-01-08T01:16:25;99500.00;;;13.20
16956;BMP180;8594;52.052;8.354;2023-01-08T01:18:54;99509.00;;;12.90
16956;BMP180;8594;52.052;8.354;2023-01-08T01:21:25;99514.00;;;12.90
16956;BMP180;8594;52.052;8.354;2023-01-08T01:23:54;99512.00;;;13.10
16956;BMP180;8594;52.052;8.354;2023-01-08T01:26:24;99512.00;;;13.00
16956;BMP180;8594;52.052;8.354;2023-01-08T01:28:55;99521.00;;;13.10
16956;BMP180;8594;52.052;8.354;2023-01-08T01:31:23;99515.00;;;13.00
16956;BMP180;8594;52.052;8.354;2023-01-08T01:33:50;99508.00;;;13.00
16956;BMP180;8594;52.052;8.354;2023-01-08T01:36:21;99501.00;;;13.10
16956;BMP180;8594;52.052;8.354;2023-01-08T01:38:51;99501.00;;;13.10
16956;BMP180;8594;52.052;8.354;2023-01-08T01:41:26;99501.00;;;12.90
16956;BMP180;8594;52.052;8.354;2023-01-08T01:43:54;99498.00;;;12.90
16956;BMP180;8594;52.052;8.354;2023-01-08T01:46:39;99500.00;;;12.90
16956;BMP180;8594;52.052;8.354;2023-01-08T01:49:10;99495.00;;;13.10
16956;BMP180;8594;52.052;8.354;2023-01-08T01:51:40;99496.00;;;12.60
16956;BMP180;8594;52.052;8.354;2023-01-08T01:54:11;99487.00;;;12.90
16956;BMP180;8594;52.052;8.354;2023-01-08T01:56:41;99492.00;;;13.00
16956;BMP180;8594;52.052;8.354;2023-01-08T01:59:09;99485.00;;;13.10
16956;BMP180;8594;52.052;8.354;2023-01-08T02:01:39;99495.00;;;12.90
16956;BMP180;8594;52.052;8.354;2023-01-08T02:04:09;99500.00;;;13.10
16956;BMP180;8594;52.052;8.354;2023-01-08T02:06:41;99500.00;;;13.10
16956;BMP180;8594;52.052;8.354;2023-01-08T02:09:20;99493.00;;;12.80
16956;BMP180;8594;52.052;8.354;2023-01-08T02:11:56;99509.00;;;13.10
16956;BMP180;8594;52.052;8.354;2023-01-08T02:14:55;99495.00;;;13.10
16956;BMP180;8594;52.052;8.354;2023-01-08T02:17:46;99493.00;;;13.10
16956;BMP180;8594;52.052;8.354;2023-01-08T02:20:20;99497.00;;;12.90
16956;BMP180;8594;52.052;8.354;2023-01-08T02:23:09;99492.00;;;12.90
16956;BMP180;8594;52.052;8.354;2023-01-08T02:26:03;99484.00;;;12.90
16956;BMP180;8594;52.052;8.354;2023-01-08T02:28:33;99490.00;;;12.90
16956;BMP180;8594;52.052;8.354;2023-01-08T02:31:02;99492.00;;;13.20
16956;BMP180;8594;52.052;8.354;2023-01-08T02:33:31;99489.00;;;12.80
16956;BMP180;8594;52.052;8.354;2023-01-08T02:36:27;99488.00;;;12.90
16956;BMP180;8594;52.052;8.354;2023-01-08T02:39:14;99488.00;;;13.20
16956;BMP180;8594;52.052;8.354;2023-01-08T02:42:04;99492.00;;;13.10
16956;BMP180;8594;52.052;8.354;2023-01-08T02:44:44;99484.00;;;12.90
16956;BMP180;8594;52.052;8.354;2023-01-08T02:47:23;99477.00;;;13.30
16956;BMP180;8594;52.052;8.354;2023-01-08T02:49:59;99467.00;;;13.20
16956;BMP180;8594;52.052;8.354;2023-01-08T02:52:30;99468.00;;;13.10
16956;BMP180;8594;52.052;8.354;2023-01-08T02:55:01;99461.00;;;13.10
16956;BMP180;8594;52.052;8.354;2023-01-08T02:57:32;99456.00;;;13.30
16956;BMP180;8594;52.052;8.354;2023-01-08T03:00:00;99453.00;;;13.20
16956;BMP180;8594;52.052;8.354;2023-01-08T03:02:33;99446.00;;;13.20
16956;BMP180;8594;52.052;8.354;2023-01-08T03:05:06;99455.00;;;13.10
16956;BMP180;8594;52.052;8.354;2023-01-08T03:07:35;99434.00;;;13.30
16956;BMP180;8594;52.052;8.354;2023-01-08T03:10:03;99442.00;;;13.20
16956;BMP180;8594;52.052;8.354;2023-01-08T03:12:43;99432.00;;;13.00
16956;BMP180;8594;52.052;8.354;2023-01-08T03:15:19;99438.00;;;13.00
16956;BMP180;8594;52.052;8.354;2023-01-08T03:17:51;99430.00;;;12.80
16956;BMP180;8594;52.052;8.354;2023-01-08T03:20:23;99427.00;;;12.80
16956;BMP180;8594;52.052;8.354;2023-01-08T03:22:54;99434.00;;;13.10
16956;BMP180;8594;52.052;8.354;2023-01-08T03:25:25;99428.00;;;13.00
16956;BMP180;8594;52.052;8.354;2023-01-08T03:28:00;99431.00;;;13.30
16956;BMP180;8594;52.052;8.354;2023-01-08T03:30:29;99423.00;;;13.10
16956;BMP180;8594;52.052;8.354;2023-01-08T03:32:59;99432.00;;;13.00
16956;BMP180;8594;52.052;8.354;2023-01-08T03:35:28;99435.00;;;13.20
16956;BMP180;8594;52.052;8.354;2023-01-08T03:38:09;99432.00;;;12.90
16956;BMP180;8594;52.052;8.354;2023-01-08T03:40:43;99430.00;;;13.00
16956;BMP180;8594;52.052;8.354;2023-01-08T03:43:12;99426.00;;;13.10
16956;BMP180;8594;52.052;8.354;2023-01-08T03:45:47;99421.00;;;12.80
16956;BMP180;8594;52.052;8.354;2023-01-08T03:48:16;99411.00;;;13.00
16956;BMP180;8594;52.052;8.354;2023-01-08T03:50:44;99407.00;;;13.00
16956;BMP180;8594;52.052;8.354;2023-01-08T03:53:11;99404.00;;;12.90
16956;BMP180;8594;52.052;8.354;2023-01-08T03:55:38;99400.00;;;13.00
16956;BMP180;8594;52.052;8.354;2023-01-08T03:58:04;99397.00;;;13.20
16956;BMP180;8594;52.052;8.354;2023-01-08T04:00:33;99400.00;;;12.80
16956;BMP180;8594;52.052;8.354;2023-01-08T04:03:00;99394.00;;;13.00
16956;BMP180;8594;52.052;8.354;2023-01-08T04:05:26;99393.00;;;12.80
16956;BMP180;8594;52.052;8.354;2023-01-08T04:07:54;99395.00;;;12.80
16956;BMP180;8594;52.052;8.354;2023-01-08T04:10:22;99392.00;;;13.10
16956;BMP180;8594;52.052;8.354;2023-01-08T04:12:49;99380.00;;;12.80
16956;BMP180;8594;52.052;8.354;2023-01-08T04:15:17;99390.00;;;12.90
16956;BMP180;8594;52.052;8.354;2023-01-08T04:17:45;99380.00;;;13.00
16956;BMP180;8594;52.052;8.354;2023-01-08T04:20:12;99378.00;;;12.90
16956;BMP180;8594;52.052;8.354;2023-01-08T04:22:39;99382.00;;;12.40
16956;BMP180;8594;52.052;8.354;2023-01-08T04:25:07;99382.00;;;12.60
16956;BMP180;8594;52.052;8.354;2023-01-08T04:27:33;99376.00;;;12.90
16956;BMP180;8594;52.052;8.354;2023-01-08T04:30:00;99376.00;;;13.00
16956;BMP180;8594;52.052;8.354;2023-01-08T04:32:27;99372.00;;;12.90
16956;BMP180;8594;52.052;8.354;2023-01-08T04:34:55;99374.00;;;13.00
16956;BMP180;8594;52.052;8.354;2023-01-08T04:37:22;99373.00;;;12.90
16956;BMP180;8594;52.052;8.354;2023-01-08T04:39:49;99369.00;;;12.80
16956;BMP180;8594;52.052;8.354;2023-01-08T04:42:16;99376.00;;;12.90
16956;BMP180;8594;52.052;8.354;2023-01-08T04:44:43;99370.00;;;12.70
16956;BMP180;8594;52.052;8.354;2023-01-08T04:47:10;99372.00;;;13.00
16956;BMP180;8594;52.052;8.354;2023-01-08T04:49:37;99366.00;;;13.20
16956;BMP180;8594;52.052;8.354;2023-01-08T04:52:05;99365.00;;;13.00
16956;BMP180;8594;52.052;8.354;2023-01-08T04:54:32;99363.00;;;12.80
16956;BMP180;8594;52.052;8.354;2023-01-08T04:56:58;99364.00;;;12.50
16956;BMP180;8594;52.052;8.354;2023-01-08T04:59:25;99357.00;;;12.80
16956;BMP180;8594;52.052;8.354;2023-01-08T05:01:52;99359.00;;;12.60
16956;BMP180;8594;52.052;8.354;2023-01-08T05:04:21;99355.00;;;12.70
16956;BMP180;8594;52.052;8.354;2023-01-08T05:06:48;99350.00;;;12.60
16956;BMP180;8594;52.052;8.354;2023-01-08T05:09:16;99350.00;;;12.60
16956;BMP180;8594;52.052;8.354;2023-01-08T05:11:43;99346.00;;;12.80
16956;BMP180;8594;52.052;8.354;2023-01-08T05:14:10;99343.00;;;12.80
16956;BMP180;8594;52.052;8.354;2023-01-08T05:16:37;99343.00;;;12.70
16956;BMP180;8594;52.052;8.354;2023-01-08T05:19:04;99342.00;;;12.80
16956;BMP180;8594;52.052;8.354;2023-01-08T05:21:30;99340.00;;;12.80
16956;BMP180;8594;52.052;8.354;2023-01-08T05:23:58;99334.00;;;12.60
16956;BMP180;8594;52.052;8.354;2023-01-08T05:26:26;99337.00;;;13.00
16956;BMP180;8594;52.052;8.354;2023-01-08T05:28:53;99336.00;;;13.00
16956;BMP180;8594;52.052;8.354;2023-01-08T05:31:20;99343.00;;;12.90
16956;BMP180;8594;52.052;8.354;2023-01-08T05:33:46;99343.00;;;13.00
16956;BMP180;8594;52.052;8.354;2023-01-08T05:36:13;99333.00;;;12.90
16956;BMP180;8594;52.052;8.354;2023-01-08T05:38:40;99338.00;;;12.90
16956;BMP180;8594;52.052;8.354;2023-01-08T05:41:08;99342.00;;;12.90
16956;BMP180;8594;52.052;8.354;2023-01-08T05:43:37;99336.00;;;12.80
16956;BMP180;8594;52.052;8.354;2023-01-08T05:46:04;99336.00;;;12.70
16956;BMP180;8594;52.052;8.354;2023-01-08T05:48:33;99335.00;;;12.80
16956;BMP180;8594;52.052;8.354;2023-01-08T05:51:01;99337.00;;;12.80
16956;BMP180;8594;52.052;8.354;2023-01-08T05:53:27;99333.00;;;12.80
16956;BMP180;8594;52.052;8.354;2023-01-08T05:55:59;99327.00;;;13.00
16956;BMP180;8594;52.052;8.354;2023-01-08T05:58:26;99334.00;;;12.90
16956;BMP180;8594;52.052;8.354;2023-01-08T06:01:00;99330.00;;;12.90
16956;BMP180;8594;52.052;8.354;2023-01-08T06:03:27;99335.00;;;12.60
16956;BMP180;8594;52.052;8.354;2023-01-08T06:05:58;99335.00;;;12.70
16956;BMP180;8594;52.052;8.354;2023-01-08T06:08:25;99335.00;;;12.80
16956;BMP180;8594;52.052;8.354;2023-01-08T06:10:52;99332.00;;;13.00
16956;BMP180;8594;52.052;8.354;2023-01-08T06:13:18;99331.00;;;12.90
16956;BMP180;8594;52.052;8.354;2023-01-08T06:15:45;99345.00;;;12.90
16956;BMP180;8594;52.052;8.354;2023-01-08T06:18:14;99326.00;;;12.70
16956;BMP180;8594;52.052;8.354;2023-01-08T06:20:40;99320.00;;;12.80
16956;BMP180;8594;52.052;8.354;2023-01-08T06:23:07;99320.00;;;12.80
16956;BMP180;8594;52.052;8.354;2023-01-08T06:25:34;99326.00;;;12.90
16956;BMP180;8594;52.052;8.354;2023-01-08T06:28:01;99321.00;;;12.80
16956;BMP180;8594;52.052;8.354;2023-01-08T06:30:28;99319.00;;;12.80
16956;BMP180;8594;52.052;8.354;2023-01-08T06:32:56;99316.00;;;12.90
16956;BMP180;8594;52.052;8.354;2023-01-08T06:35:25;99315.00;;;12.90
16956;BMP180;8594;52.052;8.354;2023-01-08T06:37:54;99316.00;;;12.80
16956;BMP180;8594;52.052;8.354;2023-01-08T06:40:21;99320.00;;;12.90
16956;BMP180;8594;52.052;8.354;2023-01-08T06:42:48;99322.00;;;12.80
16956;BMP180;8594;52.052;8.354;2023-01-08T06:45:15;99320.00;;;12.80
16956;BMP180;8594;52.052;8.354;2023-01-08T06:47:42;99316.00;;;12.90
16956;BMP180;8594;52.052;8.354;2023-01-08T06:50:09;99315.00;;;13.10
16956;BMP180;8594;52.052;8.354;2023-01-08T06:52:38;99320.00;;;13.00
16956;BMP180;8594;52.052;8.354;2023-01-08T06:55:06;99316.00;;;12.70
16956;BMP180;8594;52.052;8.354;2023-01-08T06:57:33;99315.00;;;12.70
16956;BMP180;8594;52.052;8.354;2023-01-08T07:00:00;99314.00;;;12.80
16956;BMP180;8594;52.052;8.354;2023-01-08T07:02:27;99312.00;;;12.80
16956;BMP180;8594;52.052;8.354;2023-01-08T07:04:54;99313.00;;;12.70
16956;BMP180;8594;52.052;8.354;2023-01-08T07:07:21;99307.00;;;12.80
16956;BMP180;8594;52.052;8.354;2023-01-08T07:09:49;99308.00;;;12.80
16956;BMP180;8594;52.052;8.354;2023-01-08T07:12:18;99316.00;;;12.80
16956;BMP180;8594;52.052;8.354;2023-01-08T07:14:45;99320.00;;;12.80
16956;BMP180;8594;52.052;8.354;2023-01-08T07:17:12;99323.00;;;12.80
16956;BMP180;8594;52.052;8.354;2023-01-08T07:19:39;99321.00;;;12.80
16956;BMP180;8594;52.052;8.354;2023-01-08T07:22:08;99320.00;;;12.70
16956;BMP180;8594;52.052;8.354;2023-01-08T07:24:34;99321.00;;;12.70
16956;BMP180;8594;52.052;8.354;2023-01-08T07:27:03;99325.00;;;12.90
16956;BMP180;8594;52.052;8.354;2023-01-08T07:29:30;99330.00;;;12.80
16956;BMP180;8594;52.052;8.354;2023-01-08T07:31:56;99335.00;;;12.90
16956;BMP180;8594;52.052;8.354;2023-01-08T07:34:23;99327.00;;;12.70
16956;BMP180;8594;52.052;8.354;2023-01-08T07:36:50;99322.00;;;12.80
16956;BMP180;8594;52.052;8.354;2023-01-08T07:39:17;99340.00;;;13.00
16956;BMP180;8594;52.052;8.354;2023-01-08T07:41:44;99334.00;;;13.00
16956;BMP180;8594;52.052;8.354;2023-01-08T07:44:12;99327.00;;;12.70
16956;BMP180;8594;52.052;8.354;2023-01-08T07:46:39;99332.00;;;12.80
16956;BMP180;8594;52.052;8.354;2023-01-08T07:49:06;99333.00;;;12.80
16956;BMP180;8594;52.052;8.354;2023-01-08T07:51:33;99327.00;;;12.90
16956;BMP180;8594;52.052;8.354;2023-01-08T07:54:00;99327.00;;;12.80
16956;BMP180;8594;52.052;8.354;2023-01-08T07:56:27;99336.00;;;12.90
16956;BMP180;8594;52.052;8.354;2023-01-08T07:58:54;99326.00;;;12.90
16956;BMP180;8594;52.052;8.354;2023-01-08T08:01:23;99325.00;;;12.80
16956;BMP180;8594;52.052;8.354;2023-01-08T08:03:50;99322.00;;;13.00
16956;BMP180;8594;52.052;8.354;2023-01-08T08:06:17;99325.00;;;13.10
16956;BMP180;8594;52.052;8.354;2023-01-08T08:08:44;99326.00;;;12.60
16956;BMP180;8594;52.052;8.354;2023-01-08T08:11:11;99327.00;;;12.90
16956;BMP180;8594;52.052;8.354;2023-01-08T08:13:38;99320.00;;;12.80
16956;BMP180;8594;52.052;8.354;2023-01-08T08:16:07;99324.00;;;12.80
16956;BMP180;8594;52.052;8.354;2023-01-08T08:18:36;99314.00;;;12.80
16956;BMP180;8594;52.052;8.354;2023-01-08T08:21:03;99325.00;;;12.80
16956;BMP180;8594;52.052;8.354;2023-01-08T08:23:31;99321.00;;;12.80
16956;BMP180;8594;52.052;8.354;2023-01-08T08:26:01;99327.00;;;12.90
16956;BMP180;8594;52.052;8.354;2023-01-08T08:28:28;99322.00;;;12.90
16956;BMP180;8594;52.052;8.354;2023-01-08T08:30:57;99319.00;;;12.70
16956;BMP180;8594;52.052;8.354;2023-01-08T08:33:24;99325.00;;;12.60
16956;BMP180;8594;52.052;8.354;2023-01-08T08:35:52;99319.00;;;12.90
16956;BMP180;8594;52.052;8.354;2023-01-08T08:38:19;99336.00;;;12.90
16956;BMP180;8594;52.052;8.354;2023-01-08T08:40:46;99324.00;;;12.90
16956;BMP180;8594;52.052;8.354;2023-01-08T08:43:13;99325.00;;;12.30
16956;BMP180;8594;52.052;8.354;2023-01-08T08:45:40;99324.00;;;12.50
16956;BMP180;8594;52.052;8.354;2023-01-08T08:48:08;99355.00;;;12.70
16956;BMP180;8594;52.052;8.354;2023-01-08T08:50:37;99372.00;;;11.70
16956;BMP180;8594;52.052;8.354;2023-01-08T08:53:05;99376.00;;;11.50
16956;BMP180;8594;52.052;8.354;2023-01-08T08:55:33;99382.00;;;11.40
16956;BMP180;8594;52.052;8.354;2023-01-08T08:58:05;99377.00;;;11.30
16956;BMP180;8594;52.052;8.354;2023-01-08T09:00:32;99367.00;;;11.30
16956;BMP180;8594;52.052;8.354;2023-01-08T09:02:59;99344.00;;;11.30
16956;BMP180;8594;52.052;8.354;2023-01-08T09:05:26;99326.00;;;10.80
16956;BMP180;8594;52.052;8.354;2023-01-08T09:07:53;99330.00;;;11.20
16956;BMP180;8594;52.052;8.354;2023-01-08T09:10:22;99346.00;;;11.20
16956;BMP180;8594;52.052;8.354;2023-01-08T09:12:49;99342.00;;;11.30
16956;BMP180;8594;52.052;8.354;2023-01-08T09:15:18;99338.00;;;11.70
16956;BMP180;8594;52.052;8.354;2023-01-08T09:17:51;99333.00;;;11.80
16956;BMP180;8594;52.052;8.354;2023-01-08T09:20:18;99325.00;;;12.10
16956;BMP180;8594;52.052;8.354;2023-01-08T09:22:45;99326.00;;;12.20
16956;BMP180;8594;52.052;8.354;2023-01-08T09:25:11;99313.00;;;12.30
16956;BMP180;8594;52.052;8.354;2023-01-08T09:27:40;99314.00;;;12.30
16956;BMP180;8594;52.052;8.354;2023-01-08T09:30:08;99315.00;;;12.20
16956;BMP180;8594;52.052;8.354;2023-01-08T09:32:35;99314.00;;;12.30
16956;BMP180;8594;52.052;8.354;2023-01-08T09:35:03;99312.00;;;12.30
16956;BMP180;8594;52.052;8.354;2023-01-08T09:37:30;99327.00;;;12.40
16956;BMP180;8594;52.052;8.354;2023-01-08T09:39:57;99328.00;;;12.40
16956;BMP180;8594;52.052;8.354;2023-01-08T09:42:27;99339.00;;;12.40
16956;BMP180;8594;52.052;8.354;2023-01-08T09:44:58;99331.00;;;12.70
16956;BMP180;8594;52.052;8.354;2023-01-08T09:47:31;99329.00;;;12.80
16956;BMP180;8594;52.052;8.354;2023-01-08T09:50:05;99337.00;;;12.60
16956;BMP180;8594;52.052;8.354;2023-01-08T09:52:33;99330.00;;;12.70
16956;BMP180;8594;52.052;8.354;2023-01-08T09:55:00;99326.00;;;12.80
16956;BMP180;8594;52.052;8.354;2023-01-08T09:57:28;99329.00;;;12.70
16956;BMP180;8594;52.052;8.354;2023-01-08T09:59:57;99335.00;;;12.80
16956;BMP180;8594;52.052;8.354;2023-01-08T10:02:25;99326.00;;;13.00
16956;BMP180;8594;52.052;8.354;2023-01-08T10:04:57;99324.00;;;13.70
16956;BMP180;8594;52.052;8.354;2023-01-08T10:07:27;99311.00;;;14.20
16956;BMP180;8594;52.052;8.354;2023-01-08T10:09:55;99305.00;;;15.30
16956;BMP180;8594;52.052;8.354;2023-01-08T10:12:26;99306.00;;;15.10
16956;BMP180;8594;52.052;8.354;2023-01-08T10:15:00;99304.00;;;15.80
16956;BMP180;8594;52.052;8.354;2023-01-08T10:17:36;99298.00;;;15.80
16956;BMP180;8594;52.052;8.354;2023-01-08T10:20:11;99300.00;;;16.00
16956;BMP180;8594;52.052;8.354;2023-01-08T10:22:38;99300.00;;;16.30
16956;BMP180;8594;52.052;8.354;2023-01-08T10:25:09;99299.00;;;16.60
16956;BMP180;8594;52.052;8.354;2023-01-08T10:27:46;99298.00;;;16.00
16956;BMP180;8594;52.052;8.354;2023-01-08T10:30:20;99291.00;;;16.30
16956;BMP180;8594;52.052;8.354;2023-01-08T10:32:52;99294.00;;;16.10
16956;BMP180;8594;52.052;8.354;2023-01-08T10:35:23;99304.00;;;16.30
16956;BMP180;8594;52.052;8.354;2023-01-08T10:37:55;99300.00;;;16.50
16956;BMP180;8594;52.052;8.354;2023-01-08T10:40:26;99297.00;;;16.90
16956;BMP180;8594;52.052;8.354;2023-01-08T10:43:03;99290.00;;;16.80
16956;BMP180;8594;52.052;8.354;2023-01-08T10:45:32;99286.00;;;17.00
16956;BMP180;8594;52.052;8.354;2023-01-08T10:48:04;99284.00;;;17.20
16956;BMP180;8594;52.052;8.354;2023-01-08T10:50:34;99275.00;;;17.50
16956;BMP180;8594;52.052;8.354;2023-01-08T10:53:03;99272.00;;;17.30
16956;BMP180;8594;52.052;8.354;2023-01-08T10:55:33;99267.00;;;17.90
16956;BMP180;8594;52.052;8.354;2023-01-08T10:58:02;99268.00;;;17.60
16956;BMP180;8594;52.052;8.354;2023-01-08T11:00:34;99271.00;;;17.60
16956;BMP180;8594;52.052;8.354;2023-01-08T11:03:05;99269.00;;;17.80
16956;BMP180;8594;52.052;8.354;2023-01-08T11:05:34;99276.00;;;16.90
16956;BMP180;8594;52.052;8.354;2023-01-08T11:08:05;99275.00;;;17.00
16956;BMP180;8594;52.052;8.354;2023-01-08T11:10:35;99279.00;;;17.50
16956;BMP180;8594;52.052;8.354;2023-01-08T11:13:05;99272.00;;;16.80
16956;BMP180;8594;52.052;8.354;2023-01-08T11:15:37;99271.00;;;17.40
16956;BMP180;8594;52.052;8.354;2023-01-08T11:18:20;99269.00;;;17.10
16956;BMP180;8594;52.052;8.354;2023-01-08T11:20:49;99261.00;;;16.70
16956;BMP180;8594;52.052;8.354;2023-01-08T11:23:20;99265.00;;;17.10
16956;BMP180;8594;52.052;8.354;2023-01-08T11:25:54;99258.00;;;16.60
16956;BMP180;8594;52.052;8.354;2023-01-08T11:28:42;99268.00;;;17.00
16956;BMP180;8594;52.052;8.354;2023-01-08T11:31:32;99260.00;;;17.80
16956;BMP180;8594;52.052;8.354;2023-01-08T11:34:06;99247.00;;;17.30
16956;BMP180;8594;52.052;8.354;2023-01-08T11:36:48;99255.00;;;17.70
16956;BMP180;8594;52.052;8.354;2023-01-08T11:39:16;99248.00;;;17.60
16956;BMP180;8594;52.052;8.354;2023-01-08T11:42:11;99242.00;;;17.50
16956;BMP180;8594;52.052;8.354;2023-01-08T11:44:55;99240.00;;;15.80
16956;BMP180;8594;52.052;8.354;2023-01-08T11:47:49;99227.00;;;16.60
16956;BMP180;8594;52.052;8.354;2023-01-08T11:50:23;99215.00;;;17.10
16956;BMP180;8594;52.052;8.354;2023-01-08T11:53:07;99206.00;;;17.30
16956;BMP180;8594;52.052;8.354;2023-01-08T11:56:03;99208.00;;;16.70
16956;BMP180;8594;52.052;8.354;2023-01-08T11:58:55;99203.00;;;17.10
16956;BMP180;8594;52.052;8.354;2023-01-08T12:01:42;99197.00;;;16.90
16956;BMP180;8594;52.052;8.354;2023-01-08T12:04:52;99188.00;;;16.90
16956;BMP180;8594;52.052;8.354;2023-01-08T12:07:29;99183.00;;;17.00
16956;BMP180;8594;52.052;8.354;2023-01-08T12:10:07;99175.00;;;16.60
16956;BMP180;8594;52.052;8.354;2023-01-08T12:12:54;99181.00;;;17.00
16956;BMP180;8594;52.052;8.354;2023-01-08T12:15:42;99177.00;;;16.70
16956;BMP180;8594;52.052;8.354;2023-01-08T12:18:34;99178.00;;;16.90
16956;BMP180;8594;52.052;8.354;2023-01-08T12:21:13;99170.00;;;17.20
16956;BMP180;8594;52.052;8.354;2023-01-08T12:24:04;99170.00;;;16.20
16956;BMP180;8594;52.052;8.354;2023-01-08T12:26:46;99168.00;;;16.10
16956;BMP180;8594;52.052;8.354;2023-01-08T12:29:34;99162.00;;;16.10
16956;BMP180;8594;52.052;8.354;2023-01-08T12:32:21;99159.00;;;15.80
16956;BMP180;8594;52.052;8.354;2023-01-08T12:34:55;99162.00;;;15.80
16956;BMP180;8594;52.052;8.354;2023-01-08T12:37:33;99156.00;;;16.40
16956;BMP180;8594;52.052;8.354;2023-01-08T12:40:12;99149.00;;;16.00
16956;BMP180;8594;52.052;8.354;2023-01-08T12:42:43;99144.00;;;16.30
16956;BMP180;8594;52.052;8.354;2023-01-08T12:45:20;99147.00;;;16.40
16956;BMP180;8594;52.052;8.354;2023-01-08T12:47:54;99158.00;;;16.10
16956;BMP180;8594;52.052;8.354;2023-01-08T12:50:58;99147.00;;;16.20
16956;BMP180;8594;52.052;8.354;2023-01-08T12:53:43;99147.00;;;15.40
16956;BMP180;8594;52.052;8.354;2023-01-08T12:56:20;99134.00;;;15.70
16956;BMP180;8594;52.052;8.354;2023-01-08T12:59:09;99128.00;;;15.50
16956;BMP180;8594;52.052;8.354;2023-01-08T13:01:46;99116.00;;;15.60
16956;BMP180;8594;52.052;8.354;2023-01-08T13:04:15;99118.00;;;15.70
16956;BMP180;8594;52.052;8.354;2023-01-08T13:06:59;99115.00;;;15.40
16956;BMP180;8594;52.052;8.354;2023-01-08T13:09:29;99105.00;;;15.40
16956;BMP180;8594;52.052;8.354;2023-01-08T13:11:59;99105.00;;;15.60
16956;BMP180;8594;52.052;8.354;2023-01-08T13:14:27;99106.00;;;15.60
16956;BMP180;8594;52.052;8.354;2023-01-08T13:17:03;99103.00;;;15.70
16956;BMP180;8594;52.052;8.354;2023-01-08T13:19:39;99097.00;;;15.50
16956;BMP180;8594;52.052;8.354;2023-01-08T13:22:23;99098.00;;;15.40
16956;BMP180;8594;52.052;8.354;2023-01-08T13:25:07;99093.00;;;15.50
16956;BMP180;8594;52.052;8.354;2023-01-08T13:27:34;99080.00;;;15.30
16956;BMP180;8594;52.052;8.354;2023-01-08T13:30:01;99084.00;;;15.70
16956;BMP180;8594;52.052;8.354;2023-01-08T13:32:42;99081.00;;;15.20
16956;BMP180;8594;52.052;8.354;2023-01-08T13:35:23;99078.00;;;14.90
16956;BMP180;8594;52.052;8.354;2023-01-08T13:38:03;99068.00;;;15.20
16956;BMP180;8594;52.052;8.354;2023-01-08T13:40:50;99063.00;;;14.70
16956;BMP180;8594;52.052;8.354;2023-01-08T13:43:24;99052.00;;;14.50
16956;BMP180;8594;52.052;8.354;2023-01-08T13:46:05;99039.00;;;14.70
16956;BMP180;8594;52.052;8.354;2023-01-08T13:48:37;99042.00;;;14.70
16956;BMP180;8594;52.052;8.354;2023-01-08T13:51:05;99030.00;;;14.40
16956;BMP180;8594;52.052;8.354;2023-01-08T13:53:33;99026.00;;;14.50
16956;BMP180;8594;52.052;8.354;2023-01-08T13:56:05;99030.00;;;14.30
16956;BMP180;8594;52.052;8.354;2023-01-08T13:58:37;99031.00;;;14.30
16956;BMP180;8594;52.052;8.354;2023-01-08T14:01:08;99028.00;;;14.10
16956;BMP180;8594;52.052;8.354;2023-01-08T14:03:43;99024.00;;;14.20
16956;BMP180;8594;52.052;8.354;2023-01-08T14:06:16;99026.00;;;14.20
16956;BMP180;8594;52.052;8.354;2023-01-08T14:08:51;99022.00;;;14.40
16956;BMP180;8594;52.052;8.354;2023-01-08T14:11:24;99017.00;;;14.20
16956;BMP180;8594;52.052;8.354;2023-01-08T14:13:54;99010.00;;;14.00
16956;BMP180;8594;52.052;8.354;2023-01-08T14:16:21;98999.00;;;14.20
16956;BMP180;8594;52.052;8.354;2023-01-08T14:18:49;99007.00;;;14.10
16956;BMP180;8594;52.052;8.354;2023-01-08T14:21:21;98989.00;;;13.90
16956;BMP180;8594;52.052;8.354;2023-01-08T14:23:50;98991.00;;;14.00
16956;BMP180;8594;52.052;8.354;2023-01-08T14:26:25;98991.00;;;14.10
16956;BMP180;8594;52.052;8.354;2023-01-08T14:28:54;99008.00;;;14.10
16956;BMP180;8594;52.052;8.354;2023-01-08T14:31:24;99067.00;;;14.40
16956;BMP180;8594;52.052;8.354;2023-01-08T14:33:52;99089.00;;;13.20
16956;BMP180;8594;52.052;8.354;2023-01-08T14:36:20;99072.00;;;11.50
16956;BMP180;8594;52.052;8.354;2023-01-08T14:38:48;99055.00;;;11.30
16956;BMP180;8594;52.052;8.354;2023-01-08T14:41:32;99059.00;;;11.30
16956;BMP180;8594;52.052;8.354;2023-01-08T14:44:21;99050.00;;;11.10